sensor_id;sensor_type;location;lat;lon;timestamp;P1;durP1;ratioP1;P2;durP2;ratioP2
7471;SDS011;3777;48.722;8.110;2023-03-11T00:00:36;3.13;;;2.00;;
7471;SDS011;3777;48.722;8.110;2023-03-11T00:03:05;3.03;;;2.10;;
7471;SDS011;3777;48.722;8.110;2023-03-11T00:05:34;2.77;;;2.23;;
7471;SDS011;3777;48.722;8.110;2023-03-11T00:08:02;2.67;;;2.20;;
7471;SDS011;3777;48.722;8.110;2023-03-11T00:10:30;3.57;;;2.27;;
7471;SDS011;3777;48.722;8.110;2023-03-11T00:12:59;2.73;;;2.30;;
7471;SDS011;3777;48.722;8.110;2023-03-11T00:15:28;2.70;;;2.13;;
7471;SDS011;3777;48.722;8.110;2023-03-11T00:17:56;2.80;;;2.10;;
7471;SDS011;3777;48.722;8.110;2023-03-11T00:20:24;3.33;;;2.20;;
7471;SDS011;3777;48.722;8.110;2023-03-11T00:22:53;5.60;;;2.70;;
7471;SDS011;3777;48.722;8.110;2023-03-11T00:25:20;3.43;;;2.40;;
7471;SDS011;3777;48.722;8.110;2023-03-11T00:27:49;4.20;;;2.00;;
7471;SDS011;3777;48.722;8.110;2023-03-11T00:30:16;3.97;;;2.50;;
7471;SDS011;3777;48.722;8.110;2023-03-11T00:32:47;3.27;;;2.30;;
7471;SDS011;3777;48.722;8.110;2023-03-11T00:35:15;3.50;;;2.47;;
7471;SDS011;3777;48.722;8.110;2023-03-11T00:37:44;3.40;;;2.47;;
7471;SDS011;3777;48.722;8.110;2023-03-11T00:40:13;6.50;;;2.87;;
7471;SDS011;3777;48.722;8.110;2023-03-11T00:42:41;4.33;;;2.60;;
7471;SDS011;3777;48.722;8.110;2023-03-11T00:45:08;4.37;;;2.30;;
7471;SDS011;3777;48.722;8.110;2023-03-11T00:47:35;4.27;;;2.67;;
7471;SDS011;3777;48.722;8.110;2023-03-11T00:50:05;4.20;;;2.70;;
7471;SDS011;3777;48.722;8.110;2023-03-11T00:52:33;4.17;;;2.60;;
7471;SDS011;3777;48.722;8.110;2023-03-11T00:55:00;3.33;;;2.70;;
7471;SDS011;3777;48.722;8.110;2023-03-11T00:57:27;4.17;;;2.83;;
7471;SDS011;3777;48.722;8.110;2023-03-11T00:59:54;3.53;;;2.60;;
7471;SDS011;3777;48.722;8.110;2023-03-11T01:02:21;4.73;;;2.60;;
7471;SDS011;3777;48.722;8.110;2023-03-11T01:04:51;3.60;;;2.50;;
7471;SDS011;3777;48.722;8.110;2023-03-11T01:07:20;3.40;;;2.47;;
7471;SDS011;3777;48.722;8.110;2023-03-11T01:09:50;3.00;;;2.70;;
7471;SDS011;3777;48.722;8.110;2023-03-11T01:12:17;3.83;;;2.80;;
7471;SDS011;3777;48.722;8.110;2023-03-11T01:14:44;3.93;;;2.50;;
7471;SDS011;3777;48.722;8.110;2023-03-11T01:17:11;3.00;;;2.67;;
7471;SDS011;3777;48.722;8.110;2023-03-11T01:19:38;4.03;;;2.73;;
7471;SDS011;3777;48.722;8.110;2023-03-11T01:22:05;3.63;;;2.77;;
7471;SDS011;3777;48.722;8.110;2023-03-11T01:24:33;4.50;;;3.07;;
7471;SDS011;3777;48.722;8.110;2023-03-11T01:27:00;4.43;;;2.80;;
7471;SDS011;3777;48.722;8.110;2023-03-11T01:29:27;4.67;;;2.77;;
7471;SDS011;3777;48.722;8.110;2023-03-11T01:31:54;4.07;;;2.60;;
7471;SDS011;3777;48.722;8.110;2023-03-11T01:34:21;3.57;;;2.60;;
7471;SDS011;3777;48.722;8.110;2023-03-11T01:36:48;4.03;;;2.93;;
7471;SDS011;3777;48.722;8.110;2023-03-11T01:39:15;4.87;;;2.50;;
7471;SDS011;3777;48.722;8.110;2023-03-11T01:41:43;4.87;;;2.80;;
7471;SDS011;3777;48.722;8.110;2023-03-11T01:44:10;6.37;;;2.70;;
7471;SDS011;3777;48.722;8.110;2023-03-11T01:49:40;4.67;;;2.90;;
7471;SDS011;3777;48.722;8.110;2023-03-11T01:52:07;5.83;;;2.80;;
7471;SDS011;3777;48.722;8.110;2023-03-11T01:54:35;3.23;;;2.80;;
7471;SDS011;3777;48.722;8.110;2023-03-11T01:57:07;3.97;;;2.70;;
7471;SDS011;3777;48.722;8.110;2023-03-11T01:59:38;3.57;;;2.90;;
7471;SDS011;3777;48.722;8.110;2023-03-11T02:02:08;5.17;;;2.50;;
7471;SDS011;3777;48.722;8.110;2023-03-11T02:04:40;7.77;;;3.00;;
7471;SDS011;3777;48.722;8.110;2023-03-11T02:07:08;5.77;;;2.70;;
7471;SDS011;3777;48.722;8.110;2023-03-11T02:09:36;4.57;;;2.90;;
7471;SDS011;3777;48.722;8.110;2023-03-11T02:12:03;4.93;;;2.80;;
7471;SDS011;3777;48.722;8.110;2023-03-11T02:14:34;4.60;;;2.83;;
7471;SDS011;3777;48.722;8.110;2023-03-11T02:17:04;5.17;;;3.00;;
7471;SDS011;3777;48.722;8.110;2023-03-11T02:19:33;4.73;;;2.70;;
7471;SDS011;3777;48.722;8.110;2023-03-11T02:22:06;3.73;;;2.50;;
7471;SDS011;3777;48.722;8.110;2023-03-11T02:24:36;5.70;;;2.80;;
7471;SDS011;3777;48.722;8.110;2023-03-11T02:27:11;3.87;;;2.50;;
7471;SDS011;3777;48.722;8.110;2023-03-11T02:29:39;4.17;;;2.50;;
7471;SDS011;3777;48.722;8.110;2023-03-11T02:32:08;4.77;;;2.40;;
7471;SDS011;3777;48.722;8.110;2023-03-11T02:34:36;4.60;;;2.50;;
7471;SDS011;3777;48.722;8.110;2023-03-11T02:37:05;3.20;;;2.40;;
7471;SDS011;3777;48.722;8.110;2023-03-11T02:39:36;4.83;;;2.20;;
7471;SDS011;3777;48.722;8.110;2023-03-11T02:42:06;3.43;;;2.57;;
7471;SDS011;3777;48.722;8.110;2023-03-11T02:44:38;3.47;;;2.40;;
7471;SDS011;3777;48.722;8.110;2023-03-11T02:47:07;3.47;;;2.50;;
7471;SDS011;3777;48.722;8.110;2023-03-11T02:49:34;4.80;;;2.43;;
7471;SDS011;3777;48.722;8.110;2023-03-11T02:52:02;3.77;;;2.13;;
7471;SDS011;3777;48.722;8.110;2023-03-11T02:54:32;4.20;;;2.17;;
7471;SDS011;3777;48.722;8.110;2023-03-11T02:56:59;3.03;;;2.30;;
7471;SDS011;3777;48.722;8.110;2023-03-11T02:59:28;3.17;;;2.00;;
7471;SDS011;3777;48.722;8.110;2023-03-11T03:01:55;2.53;;;2.10;;
7471;SDS011;3777;48.722;8.110;2023-03-11T03:04:22;3.60;;;2.30;;
7471;SDS011;3777;48.722;8.110;2023-03-11T03:06:49;5.63;;;2.30;;
7471;SDS011;3777;48.722;8.110;2023-03-11T03:09:16;5.63;;;2.70;;
7471;SDS011;3777;48.722;8.110;2023-03-11T03:11:43;4.00;;;2.50;;
7471;SDS011;3777;48.722;8.110;2023-03-11T03:14:10;3.73;;;2.43;;
7471;SDS011;3777;48.722;8.110;2023-03-11T03:16:38;3.47;;;2.47;;
7471;SDS011;3777;48.722;8.110;2023-03-11T03:19:05;4.53;;;2.37;;
7471;SDS011;3777;48.722;8.110;2023-03-11T03:21:32;4.50;;;2.50;;
7471;SDS011;3777;48.722;8.110;2023-03-11T03:23:59;2.90;;;2.50;;
7471;SDS011;3777;48.722;8.110;2023-03-11T03:26:26;3.77;;;2.57;;
7471;SDS011;3777;48.722;8.110;2023-03-11T03:28:53;5.97;;;2.60;;
7471;SDS011;3777;48.722;8.110;2023-03-11T03:31:20;3.70;;;2.40;;
7471;SDS011;3777;48.722;8.110;2023-03-11T03:33:48;5.50;;;2.53;;
7471;SDS011;3777;48.722;8.110;2023-03-11T03:36:15;3.83;;;2.60;;
7471;SDS011;3777;48.722;8.110;2023-03-11T03:38:42;3.80;;;2.30;;
7471;SDS011;3777;48.722;8.110;2023-03-11T03:41:09;3.30;;;2.47;;
7471;SDS011;3777;48.722;8.110;2023-03-11T03:43:39;2.40;;;2.20;;
7471;SDS011;3777;48.722;8.110;2023-03-11T03:46:06;4.73;;;3.10;;
7471;SDS011;3777;48.722;8.110;2023-03-11T03:48:33;4.10;;;2.73;;
7471;SDS011;3777;48.722;8.110;2023-03-11T03:51:04;3.87;;;2.87;;
7471;SDS011;3777;48.722;8.110;2023-03-11T03:53:33;7.93;;;2.63;;
7471;SDS011;3777;48.722;8.110;2023-03-11T03:56:01;3.03;;;2.50;;
7471;SDS011;3777;48.722;8.110;2023-03-11T03:58:28;4.70;;;2.83;;
7471;SDS011;3777;48.722;8.110;2023-03-11T04:00:55;2.30;;;2.03;;
7471;SDS011;3777;48.722;8.110;2023-03-11T04:03:23;3.87;;;2.73;;
7471;SDS011;3777;48.722;8.110;2023-03-11T04:05:50;3.50;;;2.40;;
7471;SDS011;3777;48.722;8.110;2023-03-11T04:08:19;2.57;;;2.27;;
7471;SDS011;3777;48.722;8.110;2023-03-11T04:10:54;5.80;;;3.00;;
7471;SDS011;3777;48.722;8.110;2023-03-11T04:13:22;8.30;;;2.97;;
7471;SDS011;3777;48.722;8.110;2023-03-11T04:15:49;5.20;;;2.57;;
7471;SDS011;3777;48.722;8.110;2023-03-11T04:18:16;4.93;;;2.60;;
7471;SDS011;3777;48.722;8.110;2023-03-11T04:20:43;4.57;;;2.60;;
7471;SDS011;3777;48.722;8.110;2023-03-11T04:23:10;3.70;;;2.57;;
7471;SDS011;3777;48.722;8.110;2023-03-11T04:25:39;6.47;;;2.93;;
7471;SDS011;3777;48.722;8.110;2023-03-11T04:28:06;3.43;;;2.50;;
7471;SDS011;3777;48.722;8.110;2023-03-11T04:30:33;5.97;;;2.83;;
7471;SDS011;3777;48.722;8.110;2023-03-11T04:33:00;3.27;;;2.47;;
7471;SDS011;3777;48.722;8.110;2023-03-11T04:35:27;4.83;;;3.00;;
7471;SDS011;3777;48.722;8.110;2023-03-11T04:37:54;2.80;;;2.60;;
7471;SDS011;3777;48.722;8.110;2023-03-11T04:40:21;4.40;;;3.00;;
7471;SDS011;3777;48.722;8.110;2023-03-11T04:42:49;4.73;;;3.17;;
7471;SDS011;3777;48.722;8.110;2023-03-11T04:45:18;5.70;;;2.80;;
7471;SDS011;3777;48.722;8.110;2023-03-11T04:47:46;4.90;;;2.83;;
7471;SDS011;3777;48.722;8.110;2023-03-11T04:50:13;5.33;;;3.13;;
7471;SDS011;3777;48.722;8.110;2023-03-11T04:52:41;4.73;;;2.90;;
7471;SDS011;3777;48.722;8.110;2023-03-11T04:55:08;4.70;;;2.90;;
7471;SDS011;3777;48.722;8.110;2023-03-11T04:57:37;4.47;;;3.07;;
7471;SDS011;3777;48.722;8.110;2023-03-11T05:00:07;3.30;;;2.80;;
7471;SDS011;3777;48.722;8.110;2023-03-11T05:02:36;4.63;;;3.03;;
7471;SDS011;3777;48.722;8.110;2023-03-11T05:05:04;5.03;;;3.23;;
7471;SDS011;3777;48.722;8.110;2023-03-11T05:07:32;5.37;;;3.00;;
7471;SDS011;3777;48.722;8.110;2023-03-11T05:09:59;5.37;;;3.07;;
7471;SDS011;3777;48.722;8.110;2023-03-11T05:12:26;5.50;;;3.07;;
7471;SDS011;3777;48.722;8.110;2023-03-11T05:14:53;3.70;;;2.73;;
7471;SDS011;3777;48.722;8.110;2023-03-11T05:17:21;3.23;;;2.93;;
7471;SDS011;3777;48.722;8.110;2023-03-11T05:19:49;4.37;;;2.80;;
7471;SDS011;3777;48.722;8.110;2023-03-11T05:22:17;6.43;;;3.33;;
7471;SDS011;3777;48.722;8.110;2023-03-11T05:24:45;5.87;;;3.40;;
7471;SDS011;3777;48.722;8.110;2023-03-11T05:27:12;4.93;;;3.50;;
7471;SDS011;3777;48.722;8.110;2023-03-11T05:29:41;7.87;;;3.60;;
7471;SDS011;3777;48.722;8.110;2023-03-11T05:32:09;5.37;;;3.30;;
7471;SDS011;3777;48.722;8.110;2023-03-11T05:34:37;5.23;;;3.43;;
7471;SDS011;3777;48.722;8.110;2023-03-11T05:37:04;5.13;;;3.20;;
7471;SDS011;3777;48.722;8.110;2023-03-11T05:39:31;5.47;;;3.30;;
7471;SDS011;3777;48.722;8.110;2023-03-11T05:41:58;4.73;;;2.97;;
7471;SDS011;3777;48.722;8.110;2023-03-11T05:44:26;6.37;;;3.97;;
7471;SDS011;3777;48.722;8.110;2023-03-11T05:46:53;6.33;;;3.97;;
7471;SDS011;3777;48.722;8.110;2023-03-11T05:49:20;6.90;;;3.80;;
7471;SDS011;3777;48.722;8.110;2023-03-11T05:51:48;3.40;;;3.10;;
7471;SDS011;3777;48.722;8.110;2023-03-11T05:54:15;5.63;;;3.73;;
7471;SDS011;3777;48.722;8.110;2023-03-11T05:56:43;4.77;;;2.90;;
7471;SDS011;3777;48.722;8.110;2023-03-11T05:59:11;5.67;;;3.40;;
7471;SDS011;3777;48.722;8.110;2023-03-11T06:01:38;6.90;;;3.83;;
7471;SDS011;3777;48.722;8.110;2023-03-11T06:04:07;4.90;;;3.87;;
7471;SDS011;3777;48.722;8.110;2023-03-11T06:06:34;5.60;;;3.70;;
7471;SDS011;3777;48.722;8.110;2023-03-11T06:09:02;6.73;;;3.90;;
7471;SDS011;3777;48.722;8.110;2023-03-11T06:11:29;6.07;;;3.80;;
7471;SDS011;3777;48.722;8.110;2023-03-11T06:13:56;7.80;;;4.27;;
7471;SDS011;3777;48.722;8.110;2023-03-11T06:16:24;6.60;;;3.77;;
7471;SDS011;3777;48.722;8.110;2023-03-11T06:18:51;6.87;;;4.00;;
7471;SDS011;3777;48.722;8.110;2023-03-11T06:21:18;5.90;;;3.83;;
7471;SDS011;3777;48.722;8.110;2023-03-11T06:23:46;7.57;;;4.60;;
7471;SDS011;3777;48.722;8.110;2023-03-11T06:26:17;8.30;;;4.53;;
7471;SDS011;3777;48.722;8.110;2023-03-11T06:28:47;7.23;;;4.20;;
7471;SDS011;3777;48.722;8.110;2023-03-11T06:31:15;10.80;;;4.77;;
7471;SDS011;3777;48.722;8.110;2023-03-11T06:33:44;9.20;;;4.00;;
7471;SDS011;3777;48.722;8.110;2023-03-11T06:36:12;4.93;;;3.57;;
7471;SDS011;3777;48.722;8.110;2023-03-11T06:38:40;6.13;;;3.90;;
7471;SDS011;3777;48.722;8.110;2023-03-11T06:41:08;7.57;;;4.20;;
7471;SDS011;3777;48.722;8.110;2023-03-11T06:43:37;4.97;;;3.50;;
7471;SDS011;3777;48.722;8.110;2023-03-11T06:46:07;4.00;;;3.57;;
7471;SDS011;3777;48.722;8.110;2023-03-11T06:48:35;5.63;;;3.33;;
7471;SDS011;3777;48.722;8.110;2023-03-11T06:51:02;7.20;;;3.43;;
7471;SDS011;3777;48.722;8.110;2023-03-11T06:53:29;5.33;;;3.50;;
7471;SDS011;3777;48.722;8.110;2023-03-11T06:55:57;9.50;;;3.77;;
7471;SDS011;3777;48.722;8.110;2023-03-11T06:58:25;7.40;;;4.47;;
7471;SDS011;3777;48.722;8.110;2023-03-11T07:00:54;7.17;;;3.40;;
7471;SDS011;3777;48.722;8.110;2023-03-11T07:03:24;5.53;;;3.50;;
7471;SDS011;3777;48.722;8.110;2023-03-11T07:05:51;5.97;;;3.50;;
7471;SDS011;3777;48.722;8.110;2023-03-11T07:08:18;8.83;;;4.23;;
7471;SDS011;3777;48.722;8.110;2023-03-11T07:10:45;4.30;;;3.13;;
7471;SDS011;3777;48.722;8.110;2023-03-11T07:13:13;4.93;;;3.20;;
7471;SDS011;3777;48.722;8.110;2023-03-11T07:15:40;5.40;;;3.50;;
7471;SDS011;3777;48.722;8.110;2023-03-11T07:18:08;5.27;;;3.40;;
7471;SDS011;3777;48.722;8.110;2023-03-11T07:20:35;5.30;;;3.00;;
7471;SDS011;3777;48.722;8.110;2023-03-11T07:23:02;5.07;;;3.10;;
7471;SDS011;3777;48.722;8.110;2023-03-11T07:25:29;5.37;;;3.33;;
7471;SDS011;3777;48.722;8.110;2023-03-11T07:27:56;5.17;;;2.90;;
7471;SDS011;3777;48.722;8.110;2023-03-11T07:30:23;3.30;;;2.60;;
7471;SDS011;3777;48.722;8.110;2023-03-11T07:32:50;4.03;;;3.00;;
7471;SDS011;3777;48.722;8.110;2023-03-11T07:35:18;4.47;;;3.10;;
7471;SDS011;3777;48.722;8.110;2023-03-11T07:37:45;4.07;;;2.90;;
7471;SDS011;3777;48.722;8.110;2023-03-11T07:40:12;5.53;;;2.90;;
7471;SDS011;3777;48.722;8.110;2023-03-11T07:42:40;8.37;;;3.20;;
7471;SDS011;3777;48.722;8.110;2023-03-11T07:45:07;5.70;;;3.07;;
7471;SDS011;3777;48.722;8.110;2023-03-11T07:47:35;5.57;;;2.93;;
7471;SDS011;3777;48.722;8.110;2023-03-11T07:50:02;6.57;;;2.80;;
7471;SDS011;3777;48.722;8.110;2023-03-11T07:52:31;7.20;;;2.73;;
7471;SDS011;3777;48.722;8.110;2023-03-11T07:54:58;3.97;;;2.60;;
7471;SDS011;3777;48.722;8.110;2023-03-11T07:57:25;4.97;;;2.70;;
7471;SDS011;3777;48.722;8.110;2023-03-11T07:59:52;4.83;;;2.93;;
7471;SDS011;3777;48.722;8.110;2023-03-11T08:02:19;6.30;;;2.77;;
7471;SDS011;3777;48.722;8.110;2023-03-11T08:04:46;8.37;;;2.63;;
7471;SDS011;3777;48.722;8.110;2023-03-11T08:07:13;5.57;;;2.67;;
7471;SDS011;3777;48.722;8.110;2023-03-11T08:09:41;4.17;;;2.70;;
7471;SDS011;3777;48.722;8.110;2023-03-11T08:12:08;9.50;;;3.23;;
7471;SDS011;3777;48.722;8.110;2023-03-11T08:14:35;10.00;;;2.90;;
7471;SDS011;3777;48.722;8.110;2023-03-11T08:17:03;7.40;;;2.30;;
7471;SDS011;3777;48.722;8.110;2023-03-11T08:19:31;6.33;;;2.13;;
7471;SDS011;3777;48.722;8.110;2023-03-11T08:22:00;5.97;;;2.60;;
7471;SDS011;3777;48.722;8.110;2023-03-11T08:24:27;4.83;;;2.20;;
7471;SDS011;3777;48.722;8.110;2023-03-11T08:26:55;6.03;;;2.40;;
7471;SDS011;3777;48.722;8.110;2023-03-11T08:29:23;3.57;;;1.80;;
7471;SDS011;3777;48.722;8.110;2023-03-11T08:31:50;7.07;;;2.20;;
7471;SDS011;3777;48.722;8.110;2023-03-11T08:34:17;6.90;;;2.30;;
7471;SDS011;3777;48.722;8.110;2023-03-11T08:36:45;6.00;;;2.27;;
7471;SDS011;3777;48.722;8.110;2023-03-11T08:39:12;5.50;;;2.30;;
7471;SDS011;3777;48.722;8.110;2023-03-11T08:41:39;5.37;;;2.60;;
7471;SDS011;3777;48.722;8.110;2023-03-11T08:44:07;5.10;;;2.00;;
7471;SDS011;3777;48.722;8.110;2023-03-11T08:46:35;6.70;;;2.20;;
7471;SDS011;3777;48.722;8.110;2023-03-11T08:49:04;6.93;;;2.77;;
7471;SDS011;3777;48.722;8.110;2023-03-11T08:51:32;5.23;;;2.50;;
7471;SDS011;3777;48.722;8.110;2023-03-11T08:54:00;4.00;;;2.10;;
7471;SDS011;3777;48.722;8.110;2023-03-11T08:56:28;4.67;;;2.50;;
7471;SDS011;3777;48.722;8.110;2023-03-11T08:58:55;6.00;;;1.93;;
7471;SDS011;3777;48.722;8.110;2023-03-11T09:01:23;6.33;;;2.40;;
7471;SDS011;3777;48.722;8.110;2023-03-11T09:03:50;4.27;;;2.27;;
7471;SDS011;3777;48.722;8.110;2023-03-11T09:06:17;6.57;;;1.93;;
7471;SDS011;3777;48.722;8.110;2023-03-11T09:08:45;6.23;;;2.50;;
7471;SDS011;3777;48.722;8.110;2023-03-11T09:11:13;3.87;;;2.30;;
7471;SDS011;3777;48.722;8.110;2023-03-11T09:13:41;7.27;;;2.20;;
7471;SDS011;3777;48.722;8.110;2023-03-11T09:16:08;4.30;;;2.30;;
7471;SDS011;3777;48.722;8.110;2023-03-11T09:18:39;5.90;;;2.63;;
7471;SDS011;3777;48.722;8.110;2023-03-11T09:21:06;4.07;;;1.80;;
7471;SDS011;3777;48.722;8.110;2023-03-11T09:23:33;4.80;;;2.10;;
7471;SDS011;3777;48.722;8.110;2023-03-11T09:26:00;4.60;;;2.20;;
7471;SDS011;3777;48.722;8.110;2023-03-11T09:28:26;5.73;;;2.13;;
7471;SDS011;3777;48.722;8.110;2023-03-11T09:30:53;4.57;;;1.90;;
7471;SDS011;3777;48.722;8.110;2023-03-11T09:33:20;6.73;;;2.10;;
7471;SDS011;3777;48.722;8.110;2023-03-11T09:35:49;7.00;;;2.27;;
7471;SDS011;3777;48.722;8.110;2023-03-11T09:38:16;5.70;;;2.33;;
7471;SDS011;3777;48.722;8.110;2023-03-11T09:40:45;7.17;;;2.23;;
7471;SDS011;3777;48.722;8.110;2023-03-11T09:43:24;5.27;;;1.93;;
7471;SDS011;3777;48.722;8.110;2023-03-11T09:46:02;4.10;;;1.83;;
7471;SDS011;3777;48.722;8.110;2023-03-11T09:48:40;4.87;;;1.90;;
7471;SDS011;3777;48.722;8.110;2023-03-11T09:51:16;3.43;;;1.80;;
7471;SDS011;3777;48.722;8.110;2023-03-11T09:53:48;4.27;;;2.03;;
7471;SDS011;3777;48.722;8.110;2023-03-11T09:56:20;5.30;;;1.93;;
7471;SDS011;3777;48.722;8.110;2023-03-11T09:58:48;6.77;;;2.10;;
7471;SDS011;3777;48.722;8.110;2023-03-11T10:01:20;3.50;;;1.70;;
7471;SDS011;3777;48.722;8.110;2023-03-11T10:03:50;3.80;;;1.70;;
7471;SDS011;3777;48.722;8.110;2023-03-11T10:06:22;3.27;;;1.60;;
7471;SDS011;3777;48.722;8.110;2023-03-11T10:08:51;4.63;;;1.70;;
7471;SDS011;3777;48.722;8.110;2023-03-11T10:14:28;5.33;;;1.97;;
7471;SDS011;3777;48.722;8.110;2023-03-11T10:17:10;3.63;;;1.70;;
7471;SDS011;3777;48.722;8.110;2023-03-11T10:19:45;4.50;;;2.20;;
7471;SDS011;3777;48.722;8.110;2023-03-11T10:22:18;3.57;;;1.80;;
7471;SDS011;3777;48.722;8.110;2023-03-11T10:25:02;5.83;;;1.73;;
7471;SDS011;3777;48.722;8.110;2023-03-11T10:27:36;5.13;;;1.60;;
7471;SDS011;3777;48.722;8.110;2023-03-11T10:30:08;4.43;;;1.60;;
7471;SDS011;3777;48.722;8.110;2023-03-11T10:32:45;4.73;;;1.97;;
7471;SDS011;3777;48.722;8.110;2023-03-11T10:35:16;4.30;;;1.70;;
7471;SDS011;3777;48.722;8.110;2023-03-11T10:37:49;4.50;;;1.80;;
7471;SDS011;3777;48.722;8.110;2023-03-11T10:40:25;5.35;;;1.80;;
7471;SDS011;3777;48.722;8.110;2023-03-11T10:42:55;4.00;;;1.70;;
7471;SDS011;3777;48.722;8.110;2023-03-11T10:45:25;4.73;;;1.60;;
7471;SDS011;3777;48.722;8.110;2023-03-11T10:47:54;7.00;;;1.90;;
7471;SDS011;3777;48.722;8.110;2023-03-11T10:50:22;6.87;;;3.00;;
7471;SDS011;3777;48.722;8.110;2023-03-11T10:53:07;3.83;;;1.87;;
7471;SDS011;3777;48.722;8.110;2023-03-11T10:55:36;3.35;;;1.70;;
7471;SDS011;3777;48.722;8.110;2023-03-11T10:58:12;2.50;;;1.45;;
7471;SDS011;3777;48.722;8.110;2023-03-11T11:00:40;4.28;;;1.45;;
7471;SDS011;3777;48.722;8.110;2023-03-11T11:03:11;1.98;;;1.30;;
7471;SDS011;3777;48.722;8.110;2023-03-11T11:05:46;4.13;;;1.70;;
7471;SDS011;3777;48.722;8.110;2023-03-11T11:08:24;3.17;;;1.35;;
7471;SDS011;3777;48.722;8.110;2023-03-11T11:10:52;4.38;;;1.40;;
7471;SDS011;3777;48.722;8.110;2023-03-11T11:13:21;3.50;;;1.50;;
7471;SDS011;3777;48.722;8.110;2023-03-11T11:15:53;4.38;;;1.70;;
7471;SDS011;3777;48.722;8.110;2023-03-11T11:18:22;4.57;;;1.80;;
7471;SDS011;3777;48.722;8.110;2023-03-11T11:20:53;4.40;;;1.73;;
7471;SDS011;3777;48.722;8.110;2023-03-11T11:23:29;4.50;;;1.40;;
7471;SDS011;3777;48.722;8.110;2023-03-11T11:25:59;2.47;;;1.40;;
7471;SDS011;3777;48.722;8.110;2023-03-11T11:28:29;2.87;;;1.40;;
7471;SDS011;3777;48.722;8.110;2023-03-11T11:30:57;3.03;;;1.70;;
7471;SDS011;3777;48.722;8.110;2023-03-11T11:33:26;3.00;;;1.50;;
7471;SDS011;3777;48.722;8.110;2023-03-11T11:35:55;3.07;;;1.50;;
7471;SDS011;3777;48.722;8.110;2023-03-11T11:38:25;3.50;;;1.47;;
7471;SDS011;3777;48.722;8.110;2023-03-11T11:40:55;3.77;;;1.47;;
7471;SDS011;3777;48.722;8.110;2023-03-11T11:43:24;2.23;;;1.33;;
7471;SDS011;3777;48.722;8.110;2023-03-11T11:46:18;4.63;;;1.90;;
7471;SDS011;3777;48.722;8.110;2023-03-11T11:48:49;4.73;;;1.70;;
7471;SDS011;3777;48.722;8.110;2023-03-11T11:51:25;3.77;;;1.80;;
7471;SDS011;3777;48.722;8.110;2023-03-11T11:53:58;2.43;;;1.50;;
7471;SDS011;3777;48.722;8.110;2023-03-11T11:56:27;4.07;;;1.80;;
7471;SDS011;3777;48.722;8.110;2023-03-11T11:58:54;3.47;;;1.80;;
7471;SDS011;3777;48.722;8.110;2023-03-11T12:01:29;3.57;;;1.70;;
7471;SDS011;3777;48.722;8.110;2023-03-11T12:04:24;4.07;;;1.80;;
7471;SDS011;3777;48.722;8.110;2023-03-11T12:07:09;5.43;;;1.90;;
7471;SDS011;3777;48.722;8.110;2023-03-11T12:09:46;4.17;;;1.83;;
7471;SDS011;3777;48.722;8.110;2023-03-11T12:12:20;4.33;;;1.70;;
7471;SDS011;3777;48.722;8.110;2023-03-11T12:14:53;3.33;;;1.50;;
7471;SDS011;3777;48.722;8.110;2023-03-11T12:17:26;5.93;;;1.90;;
7471;SDS011;3777;48.722;8.110;2023-03-11T12:19:56;3.53;;;1.70;;
7471;SDS011;3777;48.722;8.110;2023-03-11T12:25:29;2.67;;;1.70;;
7471;SDS011;3777;48.722;8.110;2023-03-11T12:28:03;6.00;;;1.93;;
7471;SDS011;3777;48.722;8.110;2023-03-11T12:30:40;4.03;;;1.90;;
7471;SDS011;3777;48.722;8.110;2023-03-11T12:33:12;2.53;;;1.60;;
7471;SDS011;3777;48.722;8.110;2023-03-11T12:35:46;4.37;;;1.67;;
7471;SDS011;3777;48.722;8.110;2023-03-11T12:38:19;5.80;;;1.80;;
7471;SDS011;3777;48.722;8.110;2023-03-11T12:40:58;3.73;;;1.80;;
7471;SDS011;3777;48.722;8.110;2023-03-11T12:46:23;8.77;;;2.07;;
7471;SDS011;3777;48.722;8.110;2023-03-11T12:49:28;4.33;;;1.93;;
7471;SDS011;3777;48.722;8.110;2023-03-11T12:51:59;4.57;;;2.00;;
7471;SDS011;3777;48.722;8.110;2023-03-11T12:54:28;2.37;;;1.43;;
7471;SDS011;3777;48.722;8.110;2023-03-11T12:56:56;5.43;;;2.03;;
7471;SDS011;3777;48.722;8.110;2023-03-11T13:02:54;4.40;;;1.97;;
7471;SDS011;3777;48.722;8.110;2023-03-11T13:05:41;3.33;;;1.77;;
7471;SDS011;3777;48.722;8.110;2023-03-11T13:08:18;4.00;;;1.70;;
7471;SDS011;3777;48.722;8.110;2023-03-11T13:10:46;3.87;;;2.00;;
7471;SDS011;3777;48.722;8.110;2023-03-11T13:13:21;5.57;;;1.93;;
7471;SDS011;3777;48.722;8.110;2023-03-11T13:25:28;4.37;;;1.97;;
7471;SDS011;3777;48.722;8.110;2023-03-11T13:28:02;2.53;;;1.63;;
7471;SDS011;3777;48.722;8.110;2023-03-11T13:30:45;4.93;;;1.90;;
7471;SDS011;3777;48.722;8.110;2023-03-11T13:33:23;5.43;;;1.67;;
7471;SDS011;3777;48.722;8.110;2023-03-11T13:36:02;4.83;;;1.70;;
7471;SDS011;3777;48.722;8.110;2023-03-11T13:38:40;2.93;;;1.87;;
7471;SDS011;3777;48.722;8.110;2023-03-11T13:41:26;3.27;;;1.93;;
7471;SDS011;3777;48.722;8.110;2023-03-11T13:43:56;3.93;;;1.80;;
7471;SDS011;3777;48.722;8.110;2023-03-11T13:46:29;5.00;;;1.90;;
7471;SDS011;3777;48.722;8.110;2023-03-11T13:49:03;3.37;;;1.70;;
7471;SDS011;3777;48.722;8.110;2023-03-11T13:51:38;4.87;;;1.97;;
7471;SDS011;3777;48.722;8.110;2023-03-11T13:54:14;4.10;;;2.03;;
7471;SDS011;3777;48.722;8.110;2023-03-11T13:56:55;3.07;;;1.70;;
7471;SDS011;3777;48.722;8.110;2023-03-11T13:59:24;4.60;;;2.20;;
7471;SDS011;3777;48.722;8.110;2023-03-11T14:01:52;3.67;;;1.70;;
7471;SDS011;3777;48.722;8.110;2023-03-11T14:04:24;4.70;;;1.77;;
7471;SDS011;3777;48.722;8.110;2023-03-11T14:06:53;3.93;;;1.90;;
7471;SDS011;3777;48.722;8.110;2023-03-11T14:09:20;3.87;;;1.90;;
7471;SDS011;3777;48.722;8.110;2023-03-11T14:11:51;3.00;;;1.80;;
7471;SDS011;3777;48.722;8.110;2023-03-11T14:14:26;2.73;;;1.77;;
7471;SDS011;3777;48.722;8.110;2023-03-11T14:16:59;4.40;;;1.80;;
7471;SDS011;3777;48.722;8.110;2023-03-11T14:19:28;4.00;;;1.90;;
7471;SDS011;3777;48.722;8.110;2023-03-11T14:21:55;4.57;;;1.93;;
7471;SDS011;3777;48.722;8.110;2023-03-11T14:24:23;4.73;;;1.83;;
7471;SDS011;3777;48.722;8.110;2023-03-11T14:26:52;5.07;;;1.70;;
7471;SDS011;3777;48.722;8.110;2023-03-11T14:29:22;5.73;;;2.40;;
7471;SDS011;3777;48.722;8.110;2023-03-11T14:31:55;5.70;;;2.23;;
7471;SDS011;3777;48.722;8.110;2023-03-11T14:34:23;2.87;;;1.93;;
7471;SDS011;3777;48.722;8.110;2023-03-11T14:36:53;2.60;;;1.70;;
7471;SDS011;3777;48.722;8.110;2023-03-11T14:39:25;4.67;;;2.10;;
7471;SDS011;3777;48.722;8.110;2023-03-11T14:41:54;4.83;;;2.33;;
7471;SDS011;3777;48.722;8.110;2023-03-11T14:44:31;4.30;;;1.90;;
7471;SDS011;3777;48.722;8.110;2023-03-11T14:47:03;15.27;;;2.80;;
7471;SDS011;3777;48.722;8.110;2023-03-11T14:49:34;6.73;;;2.00;;
7471;SDS011;3777;48.722;8.110;2023-03-11T14:52:03;3.67;;;1.80;;
7471;SDS011;3777;48.722;8.110;2023-03-11T14:54:33;3.37;;;2.17;;
7471;SDS011;3777;48.722;8.110;2023-03-11T14:57:03;5.73;;;2.03;;
7471;SDS011;3777;48.722;8.110;2023-03-11T14:59:34;4.93;;;2.07;;
7471;SDS011;3777;48.722;8.110;2023-03-11T15:02:05;2.33;;;1.87;;
7471;SDS011;3777;48.722;8.110;2023-03-11T15:04:53;4.07;;;1.90;;
7471;SDS011;3777;48.722;8.110;2023-03-11T15:07:22;3.77;;;1.90;;
7471;SDS011;3777;48.722;8.110;2023-03-11T15:09:49;2.93;;;1.80;;
7471;SDS011;3777;48.722;8.110;2023-03-11T15:12:30;4.40;;;1.90;;
7471;SDS011;3777;48.722;8.110;2023-03-11T15:15:00;4.90;;;1.90;;
7471;SDS011;3777;48.722;8.110;2023-03-11T15:17:27;4.40;;;1.90;;
7471;SDS011;3777;48.722;8.110;2023-03-11T15:19:56;4.00;;;1.80;;
7471;SDS011;3777;48.722;8.110;2023-03-11T15:22:24;4.47;;;2.00;;
7471;SDS011;3777;48.722;8.110;2023-03-11T15:24:53;6.63;;;2.10;;
7471;SDS011;3777;48.722;8.110;2023-03-11T15:27:29;4.17;;;2.13;;
7471;SDS011;3777;48.722;8.110;2023-03-11T15:29:57;2.80;;;2.00;;
7471;SDS011;3777;48.722;8.110;2023-03-11T15:32:37;3.87;;;1.80;;
7471;SDS011;3777;48.722;8.110;2023-03-11T15:35:13;4.70;;;2.10;;
7471;SDS011;3777;48.722;8.110;2023-03-11T15:37:43;3.63;;;2.00;;
7471;SDS011;3777;48.722;8.110;2023-03-11T15:40:17;4.17;;;2.00;;
7471;SDS011;3777;48.722;8.110;2023-03-11T15:42:47;3.33;;;2.03;;
7471;SDS011;3777;48.722;8.110;2023-03-11T15:45:36;6.17;;;2.27;;
7471;SDS011;3777;48.722;8.110;2023-03-11T15:48:03;3.97;;;2.27;;
7471;SDS011;3777;48.722;8.110;2023-03-11T15:50:30;5.17;;;2.20;;
7471;SDS011;3777;48.722;8.110;2023-03-11T15:52:57;5.77;;;2.10;;
7471;SDS011;3777;48.722;8.110;2023-03-11T15:55:25;2.70;;;1.90;;